sensor_id;sensor_type;location;lat;lon;timestamp;temperature;humidity
18717;DHT22;9487;50.892;6.906;2023-07-22T00:01:56;16.20;99.90
18717;DHT22;9487;50.892;6.906;2023-07-22T00:04:23;16.10;1.00
18717;DHT22;9487;50.892;6.906;2023-07-22T00:06:52;16.10;1.00
18717;DHT22;9487;50.892;6.906;2023-07-22T00:09:19;16.00;1.00
18717;DHT22;9487;50.892;6.906;2023-07-22T00:11:49;16.00;1.00
18717;DHT22;9487;50.892;6.906;2023-07-22T00:14:17;16.00;1.00
18717;DHT22;9487;50.892;6.906;2023-07-22T00:16:44;16.00;1.00
18717;DHT22;9487;50.892;6.906;2023-07-22T00:19:11;15.90;1.00
18717;DHT22;9487;50.892;6.906;2023-07-22T00:21:39;15.80;1.00
18717;DHT22;9487;50.892;6.906;2023-07-22T00:24:06;15.70;1.00
18717;DHT22;9487;50.892;6.906;2023-07-22T00:26:33;15.50;99.90
18717;DHT22;9487;50.892;6.906;2023-07-22T00:29:02;15.60;99.90
18717;DHT22;9487;50.892;6.906;2023-07-22T00:31:30;15.70;1.00
18717;DHT22;9487;50.892;6.906;2023-07-22T00:33:57;15.80;1.00
18717;DHT22;9487;50.892;6.906;2023-07-22T00:36:25;15.80;1.00
18717;DHT22;9487;50.892;6.906;2023-07-22T00:38:51;15.70;1.00
18717;DHT22;9487;50.892;6.906;2023-07-22T00:41:19;15.70;1.00
18717;DHT22;9487;50.892;6.906;2023-07-22T00:43:46;15.70;1.00
18717;DHT22;9487;50.892;6.906;2023-07-22T00:46:14;15.70;1.00
18717;DHT22;9487;50.892;6.906;2023-07-22T00:48:43;15.70;1.00
18717;DHT22;9487;50.892;6.906;2023-07-22T00:51:11;15.70;1.00
18717;DHT22;9487;50.892;6.906;2023-07-22T00:53:38;15.80;99.90
18717;DHT22;9487;50.892;6.906;2023-07-22T00:56:05;15.60;1.00
18717;DHT22;9487;50.892;6.906;2023-07-22T00:58:32;15.60;1.00
18717;DHT22;9487;50.892;6.906;2023-07-22T01:01:01;15.50;1.00
18717;DHT22;9487;50.892;6.906;2023-07-22T01:03:30;15.50;1.00
18717;DHT22;9487;50.892;6.906;2023-07-22T01:05:57;15.50;1.00
18717;DHT22;9487;50.892;6.906;2023-07-22T01:08:26;15.50;1.00
18717;DHT22;9487;50.892;6.906;2023-07-22T01:10:53;15.40;1.00
18717;DHT22;9487;50.892;6.906;2023-07-22T01:13:24;15.40;99.90
18717;DHT22;9487;50.892;6.906;2023-07-22T01:15:54;15.40;99.90
18717;DHT22;9487;50.892;6.906;2023-07-22T01:18:20;15.40;99.90
18717;DHT22;9487;50.892;6.906;2023-07-22T01:20:49;15.30;99.90
18717;DHT22;9487;50.892;6.906;2023-07-22T01:23:17;15.30;1.00
18717;DHT22;9487;50.892;6.906;2023-07-22T01:25:44;15.30;1.00
18717;DHT22;9487;50.892;6.906;2023-07-22T01:28:12;15.30;1.00
18717;DHT22;9487;50.892;6.906;2023-07-22T01:30:39;15.20;1.00
18717;DHT22;9487;50.892;6.906;2023-07-22T01:33:06;15.30;1.00
18717;DHT22;9487;50.892;6.906;2023-07-22T01:35:33;15.30;99.90
18717;DHT22;9487;50.892;6.906;2023-07-22T01:38:00;15.20;1.00
18717;DHT22;9487;50.892;6.906;2023-07-22T01:40:29;15.20;1.00
18717;DHT22;9487;50.892;6.906;2023-07-22T01:42:57;15.20;1.00
18717;DHT22;9487;50.892;6.906;2023-07-22T01:45:23;15.20;1.00
18717;DHT22;9487;50.892;6.906;2023-07-22T01:47:51;15.10;1.00
18717;DHT22;9487;50.892;6.906;2023-07-22T01:50:18;15.10;1.00
18717;DHT22;9487;50.892;6.906;2023-07-22T01:52:45;15.10;1.00
18717;DHT22;9487;50.892;6.906;2023-07-22T01:55:12;15.10;1.00
18717;DHT22;9487;50.892;6.906;2023-07-22T01:57:42;15.10;4.20
18717;DHT22;9487;50.892;6.906;2023-07-22T02:00:09;15.10;31.80
18717;DHT22;9487;50.892;6.906;2023-07-22T02:02:37;15.10;81.30
18717;DHT22;9487;50.892;6.906;2023-07-22T02:05:05;15.10;99.90
18717;DHT22;9487;50.892;6.906;2023-07-22T02:07:32;15.10;99.90
18717;DHT22;9487;50.892;6.906;2023-07-22T02:09:59;15.20;24.00
18717;DHT22;9487;50.892;6.906;2023-07-22T02:12:28;15.30;1.00
18717;DHT22;9487;50.892;6.906;2023-07-22T02:14:56;15.30;1.00
18717;DHT22;9487;50.892;6.906;2023-07-22T02:17:23;15.20;1.00
18717;DHT22;9487;50.892;6.906;2023-07-22T02:19:51;15.20;1.00
18717;DHT22;9487;50.892;6.906;2023-07-22T02:22:18;15.20;1.00
18717;DHT22;9487;50.892;6.906;2023-07-22T02:24:45;15.20;1.00
18717;DHT22;9487;50.892;6.906;2023-07-22T02:27:12;15.20;1.50
18717;DHT22;9487;50.892;6.906;2023-07-22T02:29:40;15.20;1.00
18717;DHT22;9487;50.892;6.906;2023-07-22T02:32:09;15.20;1.00
18717;DHT22;9487;50.892;6.906;2023-07-22T02:34:35;15.10;1.00
18717;DHT22;9487;50.892;6.906;2023-07-22T02:37:03;15.10;1.00
18717;DHT22;9487;50.892;6.906;2023-07-22T02:39:30;15.00;1.00
18717;DHT22;9487;50.892;6.906;2023-07-22T02:42:00;15.00;1.00
18717;DHT22;9487;50.892;6.906;2023-07-22T02:44:27;15.00;1.00
18717;DHT22;9487;50.892;6.906;2023-07-22T02:46:54;15.00;1.00
18717;DHT22;9487;50.892;6.906;2023-07-22T02:49:23;14.90;1.00
18717;DHT22;9487;50.892;6.906;2023-07-22T02:51:50;14.90;4.90
18717;DHT22;9487;50.892;6.906;2023-07-22T02:54:17;14.80;1.00
18717;DHT22;9487;50.892;6.906;2023-07-22T02:56:44;14.90;22.60
18717;DHT22;9487;50.892;6.906;2023-07-22T02:59:11;14.80;69.30
18717;DHT22;9487;50.892;6.906;2023-07-22T03:01:39;14.80;75.80
18717;DHT22;9487;50.892;6.906;2023-07-22T03:04:07;14.80;99.90
18717;DHT22;9487;50.892;6.906;2023-07-22T03:06:37;14.80;69.50
18717;DHT22;9487;50.892;6.906;2023-07-22T03:09:04;14.90;69.50
18717;DHT22;9487;50.892;6.906;2023-07-22T03:11:32;14.80;1.00
18717;DHT22;9487;50.892;6.906;2023-07-22T03:14:01;14.80;29.60
18717;DHT22;9487;50.892;6.906;2023-07-22T03:16:28;14.80;9.50
18717;DHT22;9487;50.892;6.906;2023-07-22T03:18:57;14.90;1.00
18717;DHT22;9487;50.892;6.906;2023-07-22T03:21:24;14.90;1.00
18717;DHT22;9487;50.892;6.906;2023-07-22T03:23:52;14.90;1.00
18717;DHT22;9487;50.892;6.906;2023-07-22T03:26:19;14.80;1.00
18717;DHT22;9487;50.892;6.906;2023-07-22T03:28:46;14.90;1.00
18717;DHT22;9487;50.892;6.906;2023-07-22T03:31:13;14.80;1.00
18717;DHT22;9487;50.892;6.906;2023-07-22T03:33:40;14.80;1.00
18717;DHT22;9487;50.892;6.906;2023-07-22T03:36:11;14.80;1.00
18717;DHT22;9487;50.892;6.906;2023-07-22T03:38:38;14.80;1.00
18717;DHT22;9487;50.892;6.906;2023-07-22T03:41:07;14.80;1.00
18717;DHT22;9487;50.892;6.906;2023-07-22T03:43:34;14.80;1.00
18717;DHT22;9487;50.892;6.906;2023-07-22T03:46:00;14.80;1.00
18717;DHT22;9487;50.892;6.906;2023-07-22T03:48:27;14.70;1.00
18717;DHT22;9487;50.892;6.906;2023-07-22T03:50:54;14.70;1.00
18717;DHT22;9487;50.892;6.906;2023-07-22T03:53:21;14.70;1.00
18717;DHT22;9487;50.892;6.906;2023-07-22T03:55:48;14.60;1.00
18717;DHT22;9487;50.892;6.906;2023-07-22T03:58:17;14.60;1.00
18717;DHT22;9487;50.892;6.906;2023-07-22T04:00:48;14.60;1.00
18717;DHT22;9487;50.892;6.906;2023-07-22T04:03:15;14.60;1.00
18717;DHT22;9487;50.892;6.906;2023-07-22T04:05:42;14.60;1.00
18717;DHT22;9487;50.892;6.906;2023-07-22T04:08:09;14.60;1.00
18717;DHT22;9487;50.892;6.906;2023-07-22T04:10:36;14.70;1.00
18717;DHT22;9487;50.892;6.906;2023-07-22T04:13:03;14.70;1.00
18717;DHT22;9487;50.892;6.906;2023-07-22T04:15:34;14.70;1.00
18717;DHT22;9487;50.892;6.906;2023-07-22T04:18:00;14.70;1.00
18717;DHT22;9487;50.892;6.906;2023-07-22T04:20:28;14.60;1.00
18717;DHT22;9487;50.892;6.906;2023-07-22T04:22:55;14.60;1.00
18717;DHT22;9487;50.892;6.906;2023-07-22T04:25:22;14.60;1.00
18717;DHT22;9487;50.892;6.906;2023-07-22T04:27:49;14.60;1.00
18717;DHT22;9487;50.892;6.906;2023-07-22T04:30:16;14.60;1.00
18717;DHT22;9487;50.892;6.906;2023-07-22T04:32:48;14.70;1.00
18717;DHT22;9487;50.892;6.906;2023-07-22T04:35:16;14.80;1.00
18717;DHT22;9487;50.892;6.906;2023-07-22T04:37:43;14.80;1.00
18717;DHT22;9487;50.892;6.906;2023-07-22T04:40:11;14.80;1.00
18717;DHT22;9487;50.892;6.906;2023-07-22T04:42:40;14.80;1.00
18717;DHT22;9487;50.892;6.906;2023-07-22T04:45:08;14.80;1.00
18717;DHT22;9487;50.892;6.906;2023-07-22T04:47:36;14.90;1.00
18717;DHT22;9487;50.892;6.906;2023-07-22T04:50:07;14.90;1.00
18717;DHT22;9487;50.892;6.906;2023-07-22T04:52:34;15.00;1.00
18717;DHT22;9487;50.892;6.906;2023-07-22T04:55:03;14.90;1.00
18717;DHT22;9487;50.892;6.906;2023-07-22T04:57:34;15.00;1.00
18717;DHT22;9487;50.892;6.906;2023-07-22T05:00:01;14.90;1.00
18717;DHT22;9487;50.892;6.906;2023-07-22T05:02:30;15.00;1.00
18717;DHT22;9487;50.892;6.906;2023-07-22T05:04:57;15.00;1.00
18717;DHT22;9487;50.892;6.906;2023-07-22T05:07:25;15.00;1.00
18717;DHT22;9487;50.892;6.906;2023-07-22T05:09:52;15.10;1.00
18717;DHT22;9487;50.892;6.906;2023-07-22T05:12:19;15.00;1.00
18717;DHT22;9487;50.892;6.906;2023-07-22T05:14:46;15.00;99.90
18717;DHT22;9487;50.892;6.906;2023-07-22T05:17:13;15.00;99.90
18717;DHT22;9487;50.892;6.906;2023-07-22T05:19:41;15.00;99.90
18717;DHT22;9487;50.892;6.906;2023-07-22T05:22:07;14.90;99.90
18717;DHT22;9487;50.892;6.906;2023-07-22T05:24:36;14.90;1.00
18717;DHT22;9487;50.892;6.906;2023-07-22T05:27:03;14.90;1.00
18717;DHT22;9487;50.892;6.906;2023-07-22T05:29:30;15.00;1.00
18717;DHT22;9487;50.892;6.906;2023-07-22T05:31:57;15.00;1.00
18717;DHT22;9487;50.892;6.906;2023-07-22T05:34:23;15.10;1.00
18717;DHT22;9487;50.892;6.906;2023-07-22T05:36:50;15.10;99.90
18717;DHT22;9487;50.892;6.906;2023-07-22T05:39:17;15.20;99.90
18717;DHT22;9487;50.892;6.906;2023-07-22T05:41:47;15.30;99.90
18717;DHT22;9487;50.892;6.906;2023-07-22T05:44:13;15.40;99.90
18717;DHT22;9487;50.892;6.906;2023-07-22T05:46:40;15.50;99.90
18717;DHT22;9487;50.892;6.906;2023-07-22T05:49:08;15.60;99.90
18717;DHT22;9487;50.892;6.906;2023-07-22T05:51:36;15.80;1.00
18717;DHT22;9487;50.892;6.906;2023-07-22T05:54:03;15.90;1.00
18717;DHT22;9487;50.892;6.906;2023-07-22T05:56:30;16.00;1.00
18717;DHT22;9487;50.892;6.906;2023-07-22T05:58:58;16.00;99.90
18717;DHT22;9487;50.892;6.906;2023-07-22T06:01:25;15.90;1.00
18717;DHT22;9487;50.892;6.906;2023-07-22T06:03:52;15.90;1.00
18717;DHT22;9487;50.892;6.906;2023-07-22T06:06:19;15.90;1.00
18717;DHT22;9487;50.892;6.906;2023-07-22T06:08:45;16.00;1.00
18717;DHT22;9487;50.892;6.906;2023-07-22T06:11:12;16.10;1.00
18717;DHT22;9487;50.892;6.906;2023-07-22T06:13:39;16.20;1.00
18717;DHT22;9487;50.892;6.906;2023-07-22T06:16:08;16.30;1.00
18717;DHT22;9487;50.892;6.906;2023-07-22T06:18:36;16.40;1.00
18717;DHT22;9487;50.892;6.906;2023-07-22T06:21:03;16.60;99.90
18717;DHT22;9487;50.892;6.906;2023-07-22T06:23:30;17.00;99.90
18717;DHT22;9487;50.892;6.906;2023-07-22T06:25:58;17.20;1.00
18717;DHT22;9487;50.892;6.906;2023-07-22T06:28:25;17.30;99.90
18717;DHT22;9487;50.892;6.906;2023-07-22T06:30:52;17.30;99.90
18717;DHT22;9487;50.892;6.906;2023-07-22T06:33:21;17.50;99.90
18717;DHT22;9487;50.892;6.906;2023-07-22T06:35:48;17.70;1.00
18717;DHT22;9487;50.892;6.906;2023-07-22T06:38:15;18.00;1.00
18717;DHT22;9487;50.892;6.906;2023-07-22T06:40:42;18.30;1.00
18717;DHT22;9487;50.892;6.906;2023-07-22T06:43:08;18.40;1.00
18717;DHT22;9487;50.892;6.906;2023-07-22T06:45:36;18.60;99.90
18717;DHT22;9487;50.892;6.906;2023-07-22T06:48:03;18.60;99.90
18717;DHT22;9487;50.892;6.906;2023-07-22T06:50:31;18.50;60.80
18717;DHT22;9487;50.892;6.906;2023-07-22T06:52:58;18.60;1.00
18717;DHT22;9487;50.892;6.906;2023-07-22T06:55:25;18.50;1.00
18717;DHT22;9487;50.892;6.906;2023-07-22T06:57:52;18.60;1.00
18717;DHT22;9487;50.892;6.906;2023-07-22T07:00:19;18.60;1.00
18717;DHT22;9487;50.892;6.906;2023-07-22T07:02:45;18.60;1.00
18717;DHT22;9487;50.892;6.906;2023-07-22T07:05:12;18.50;1.00
18717;DHT22;9487;50.892;6.906;2023-07-22T07:07:41;18.50;1.00
18717;DHT22;9487;50.892;6.906;2023-07-22T07:10:08;18.50;1.00
18717;DHT22;9487;50.892;6.906;2023-07-22T07:12:34;18.50;1.00
18717;DHT22;9487;50.892;6.906;2023-07-22T07:15:02;18.60;1.00
18717;DHT22;9487;50.892;6.906;2023-07-22T07:17:29;18.50;1.00
18717;DHT22;9487;50.892;6.906;2023-07-22T07:19:55;18.50;1.00
18717;DHT22;9487;50.892;6.906;2023-07-22T07:22:22;18.60;1.00
18717;DHT22;9487;50.892;6.906;2023-07-22T07:24:51;18.50;1.00
18717;DHT22;9487;50.892;6.906;2023-07-22T07:27:18;18.60;1.00
18717;DHT22;9487;50.892;6.906;2023-07-22T07:29:44;18.60;1.00
18717;DHT22;9487;50.892;6.906;2023-07-22T07:32:11;18.70;10.20
18717;DHT22;9487;50.892;6.906;2023-07-22T07:34:38;18.80;1.00
18717;DHT22;9487;50.892;6.906;2023-07-22T07:37:05;18.90;1.00
18717;DHT22;9487;50.892;6.906;2023-07-22T07:39:32;19.00;1.00
18717;DHT22;9487;50.892;6.906;2023-07-22T07:42:00;19.00;1.00
18717;DHT22;9487;50.892;6.906;2023-07-22T07:44:27;19.10;1.00
18717;DHT22;9487;50.892;6.906;2023-07-22T07:46:54;19.40;99.90
18717;DHT22;9487;50.892;6.906;2023-07-22T07:49:21;19.30;25.30
18717;DHT22;9487;50.892;6.906;2023-07-22T07:51:49;19.50;33.20
18717;DHT22;9487;50.892;6.906;2023-07-22T07:54:16;19.60;2.80
18717;DHT22;9487;50.892;6.906;2023-07-22T07:56:43;19.70;1.00
18717;DHT22;9487;50.892;6.906;2023-07-22T07:59:12;19.90;1.00
18717;DHT22;9487;50.892;6.906;2023-07-22T08:01:39;19.90;80.80
18717;DHT22;9487;50.892;6.906;2023-07-22T08:04:07;20.10;22.60
18717;DHT22;9487;50.892;6.906;2023-07-22T08:06:34;20.40;1.00
18717;DHT22;9487;50.892;6.906;2023-07-22T08:09:03;20.40;1.00
18717;DHT22;9487;50.892;6.906;2023-07-22T08:11:31;20.30;1.00
18717;DHT22;9487;50.892;6.906;2023-07-22T08:13:57;20.20;1.00
18717;DHT22;9487;50.892;6.906;2023-07-22T08:16:26;20.30;1.00
18717;DHT22;9487;50.892;6.906;2023-07-22T08:18:54;20.40;1.00
18717;DHT22;9487;50.892;6.906;2023-07-22T08:21:21;20.50;1.00
18717;DHT22;9487;50.892;6.906;2023-07-22T08:23:48;20.70;1.00
18717;DHT22;9487;50.892;6.906;2023-07-22T08:26:15;20.20;99.90
18717;DHT22;9487;50.892;6.906;2023-07-22T08:28:46;19.90;1.00
18717;DHT22;9487;50.892;6.906;2023-07-22T08:31:13;20.00;1.00
18717;DHT22;9487;50.892;6.906;2023-07-22T08:33:41;20.00;1.00
18717;DHT22;9487;50.892;6.906;2023-07-22T08:36:08;19.80;1.00
18717;DHT22;9487;50.892;6.906;2023-07-22T08:38:36;19.90;1.00
18717;DHT22;9487;50.892;6.906;2023-07-22T08:41:03;19.70;99.90
18717;DHT22;9487;50.892;6.906;2023-07-22T08:43:30;20.00;99.90
18717;DHT22;9487;50.892;6.906;2023-07-22T08:46:00;20.20;99.90
18717;DHT22;9487;50.892;6.906;2023-07-22T08:48:30;20.40;99.90
18717;DHT22;9487;50.892;6.906;2023-07-22T08:51:10;20.50;99.90
18717;DHT22;9487;50.892;6.906;2023-07-22T08:53:39;20.80;76.50
18717;DHT22;9487;50.892;6.906;2023-07-22T08:56:07;21.00;1.00
18717;DHT22;9487;50.892;6.906;2023-07-22T08:58:34;20.80;51.80
18717;DHT22;9487;50.892;6.906;2023-07-22T09:01:02;20.90;99.90
18717;DHT22;9487;50.892;6.906;2023-07-22T09:03:29;20.70;99.90
18717;DHT22;9487;50.892;6.906;2023-07-22T09:05:56;20.80;99.90
18717;DHT22;9487;50.892;6.906;2023-07-22T09:08:24;20.90;99.90
18717;DHT22;9487;50.892;6.906;2023-07-22T09:10:51;21.20;88.20
18717;DHT22;9487;50.892;6.906;2023-07-22T09:13:20;21.30;43.90
18717;DHT22;9487;50.892;6.906;2023-07-22T09:15:49;21.40;1.00
18717;DHT22;9487;50.892;6.906;2023-07-22T09:18:17;21.60;1.00
18717;DHT22;9487;50.892;6.906;2023-07-22T09:20:44;21.80;1.00
18717;DHT22;9487;50.892;6.906;2023-07-22T09:23:11;21.80;1.00
18717;DHT22;9487;50.892;6.906;2023-07-22T09:25:40;22.00;1.00
18717;DHT22;9487;50.892;6.906;2023-07-22T09:28:07;22.00;1.00
18717;DHT22;9487;50.892;6.906;2023-07-22T09:30:36;22.10;1.00
18717;DHT22;9487;50.892;6.906;2023-07-22T09:33:04;22.20;1.00
18717;DHT22;9487;50.892;6.906;2023-07-22T09:35:44;22.20;1.00
18717;DHT22;9487;50.892;6.906;2023-07-22T09:38:11;22.10;1.00
18717;DHT22;9487;50.892;6.906;2023-07-22T09:40:41;22.20;1.00
18717;DHT22;9487;50.892;6.906;2023-07-22T09:43:10;22.30;1.00
18717;DHT22;9487;50.892;6.906;2023-07-22T09:45:37;22.40;1.00
18717;DHT22;9487;50.892;6.906;2023-07-22T09:48:05;22.30;1.00
18717;DHT22;9487;50.892;6.906;2023-07-22T09:50:32;22.30;1.00
18717;DHT22;9487;50.892;6.906;2023-07-22T09:52:59;21.70;1.00
18717;DHT22;9487;50.892;6.906;2023-07-22T09:55:27;21.60;1.00
18717;DHT22;9487;50.892;6.906;2023-07-22T09:57:57;21.80;1.00
18717;DHT22;9487;50.892;6.906;2023-07-22T10:00:27;21.90;1.00
18717;DHT22;9487;50.892;6.906;2023-07-22T10:02:57;22.20;1.00
18717;DHT22;9487;50.892;6.906;2023-07-22T10:05:26;22.40;1.00
18717;DHT22;9487;50.892;6.906;2023-07-22T10:07:55;22.50;1.00
18717;DHT22;9487;50.892;6.906;2023-07-22T10:10:24;22.60;1.00
18717;DHT22;9487;50.892;6.906;2023-07-22T10:12:53;22.40;99.90
18717;DHT22;9487;50.892;6.906;2023-07-22T10:15:25;22.60;99.90
18717;DHT22;9487;50.892;6.906;2023-07-22T10:17:53;22.70;99.90
18717;DHT22;9487;50.892;6.906;2023-07-22T10:20:22;22.70;99.90
18717;DHT22;9487;50.892;6.906;2023-07-22T10:22:49;22.70;99.90
18717;DHT22;9487;50.892;6.906;2023-07-22T10:25:17;22.80;99.90
18717;DHT22;9487;50.892;6.906;2023-07-22T10:27:45;22.80;99.90
18717;DHT22;9487;50.892;6.906;2023-07-22T10:30:14;23.00;99.90
18717;DHT22;9487;50.892;6.906;2023-07-22T10:32:43;23.00;99.90
18717;DHT22;9487;50.892;6.906;2023-07-22T10:35:17;23.00;99.90
18717;DHT22;9487;50.892;6.906;2023-07-22T10:37:45;23.20;99.90
18717;DHT22;9487;50.892;6.906;2023-07-22T10:40:20;23.20;99.90
18717;DHT22;9487;50.892;6.906;2023-07-22T10:42:54;23.10;99.90
18717;DHT22;9487;50.892;6.906;2023-07-22T10:45:24;22.80;99.90
18717;DHT22;9487;50.892;6.906;2023-07-22T10:48:03;22.70;99.90
18717;DHT22;9487;50.892;6.906;2023-07-22T10:50:44;22.80;99.90
18717;DHT22;9487;50.892;6.906;2023-07-22T10:53:13;23.00;99.90
18717;DHT22;9487;50.892;6.906;2023-07-22T10:56:05;23.20;99.90
18717;DHT22;9487;50.892;6.906;2023-07-22T10:58:33;22.40;99.90
18717;DHT22;9487;50.892;6.906;2023-07-22T11:01:23;22.10;99.90
18717;DHT22;9487;50.892;6.906;2023-07-22T11:06:53;22.10;99.90
18717;DHT22;9487;50.892;6.906;2023-07-22T11:09:40;22.10;99.90
18717;DHT22;9487;50.892;6.906;2023-07-22T11:12:12;22.20;99.90
18717;DHT22;9487;50.892;6.906;2023-07-22T11:14:47;22.50;99.90
18717;DHT22;9487;50.892;6.906;2023-07-22T11:17:15;22.90;99.90
18717;DHT22;9487;50.892;6.906;2023-07-22T11:19:44;23.10;99.90
18717;DHT22;9487;50.892;6.906;2023-07-22T11:22:11;23.10;99.90
18717;DHT22;9487;50.892;6.906;2023-07-22T11:24:39;23.20;99.90
18717;DHT22;9487;50.892;6.906;2023-07-22T11:27:07;23.00;99.90
18717;DHT22;9487;50.892;6.906;2023-07-22T11:29:35;23.40;99.90
18717;DHT22;9487;50.892;6.906;2023-07-22T11:32:03;23.60;99.90
18717;DHT22;9487;50.892;6.906;2023-07-22T11:34:31;23.70;99.90
18717;DHT22;9487;50.892;6.906;2023-07-22T11:36:59;23.50;99.90
18717;DHT22;9487;50.892;6.906;2023-07-22T11:39:27;23.50;99.90
18717;DHT22;9487;50.892;6.906;2023-07-22T11:41:59;23.40;99.90
18717;DHT22;9487;50.892;6.906;2023-07-22T11:44:27;23.20;99.90
18717;DHT22;9487;50.892;6.906;2023-07-22T11:46:57;23.50;99.90
18717;DHT22;9487;50.892;6.906;2023-07-22T11:49:29;23.40;99.90
18717;DHT22;9487;50.892;6.906;2023-07-22T11:51:59;23.50;99.90
18717;DHT22;9487;50.892;6.906;2023-07-22T11:54:27;23.60;99.90
18717;DHT22;9487;50.892;6.906;2023-07-22T11:56:55;23.50;99.90
18717;DHT22;9487;50.892;6.906;2023-07-22T11:59:35;23.80;99.90
18717;DHT22;9487;50.892;6.906;2023-07-22T12:02:02;24.00;99.90
18717;DHT22;9487;50.892;6.906;2023-07-22T12:04:31;24.10;99.90
18717;DHT22;9487;50.892;6.906;2023-07-22T12:07:00;24.00;99.90
18717;DHT22;9487;50.892;6.906;2023-07-22T12:09:27;24.20;99.90
18717;DHT22;9487;50.892;6.906;2023-07-22T12:11:55;24.40;99.90
18717;DHT22;9487;50.892;6.906;2023-07-22T12:14:24;24.70;99.90
18717;DHT22;9487;50.892;6.906;2023-07-22T12:16:55;24.70;99.90
18717;DHT22;9487;50.892;6.906;2023-07-22T12:19:23;24.80;99.90
18717;DHT22;9487;50.892;6.906;2023-07-22T12:21:50;24.80;99.90
18717;DHT22;9487;50.892;6.906;2023-07-22T12:24:18;24.80;99.90
18717;DHT22;9487;50.892;6.906;2023-07-22T12:26:46;24.80;99.90
18717;DHT22;9487;50.892;6.906;2023-07-22T12:29:13;24.70;99.90
18717;DHT22;9487;50.892;6.906;2023-07-22T12:31:39;24.50;99.90
18717;DHT22;9487;50.892;6.906;2023-07-22T12:34:06;24.60;99.90
18717;DHT22;9487;50.892;6.906;2023-07-22T12:36:34;24.60;99.90
18717;DHT22;9487;50.892;6.906;2023-07-22T12:39:01;24.80;99.90
18717;DHT22;9487;50.892;6.906;2023-07-22T12:41:29;24.70;99.90
18717;DHT22;9487;50.892;6.906;2023-07-22T12:43:56;24.70;99.90
18717;DHT22;9487;50.892;6.906;2023-07-22T12:46:23;24.40;99.90
18717;DHT22;9487;50.892;6.906;2023-07-22T12:48:50;24.50;99.90
18717;DHT22;9487;50.892;6.906;2023-07-22T12:51:17;24.50;99.90
18717;DHT22;9487;50.892;6.906;2023-07-22T12:53:44;24.50;99.90
18717;DHT22;9487;50.892;6.906;2023-07-22T12:56:11;24.40;99.90
18717;DHT22;9487;50.892;6.906;2023-07-22T12:58:39;24.40;99.90
18717;DHT22;9487;50.892;6.906;2023-07-22T13:01:06;24.50;99.90
18717;DHT22;9487;50.892;6.906;2023-07-22T13:03:33;24.70;99.90
18717;DHT22;9487;50.892;6.906;2023-07-22T13:06:00;24.80;99.90
18717;DHT22;9487;50.892;6.906;2023-07-22T13:08:27;24.90;99.90
18717;DHT22;9487;50.892;6.906;2023-07-22T13:10:54;24.90;99.90
18717;DHT22;9487;50.892;6.906;2023-07-22T13:13:21;24.90;99.90
18717;DHT22;9487;50.892;6.906;2023-07-22T13:15:49;24.80;99.90
18717;DHT22;9487;50.892;6.906;2023-07-22T13:18:16;24.80;99.90
18717;DHT22;9487;50.892;6.906;2023-07-22T13:20:43;24.90;99.90
18717;DHT22;9487;50.892;6.906;2023-07-22T13:23:10;24.90;99.90
18717;DHT22;9487;50.892;6.906;2023-07-22T13:25:36;25.00;99.90
18717;DHT22;9487;50.892;6.906;2023-07-22T13:28:04;25.10;99.90
18717;DHT22;9487;50.892;6.906;2023-07-22T13:30:31;25.30;99.90
18717;DHT22;9487;50.892;6.906;2023-07-22T13:32:59;25.30;99.90
18717;DHT22;9487;50.892;6.906;2023-07-22T13:35:26;25.00;99.90
18717;DHT22;9487;50.892;6.906;2023-07-22T13:37:52;25.00;92.00
18717;DHT22;9487;50.892;6.906;2023-07-22T13:40:19;25.10;84.80
18717;DHT22;9487;50.892;6.906;2023-07-22T13:42:46;25.20;93.10
18717;DHT22;9487;50.892;6.906;2023-07-22T13:45:13;25.50;85.80
18717;DHT22;9487;50.892;6.906;2023-07-22T13:47:40;25.50;91.10
18717;DHT22;9487;50.892;6.906;2023-07-22T13:50:10;25.60;94.40
18717;DHT22;9487;50.892;6.906;2023-07-22T13:52:37;25.60;82.90
18717;DHT22;9487;50.892;6.906;2023-07-22T13:55:06;25.60;75.90
18717;DHT22;9487;50.892;6.906;2023-07-22T13:57:33;25.50;56.90
18717;DHT22;9487;50.892;6.906;2023-07-22T14:00:00;25.50;65.60
18717;DHT22;9487;50.892;6.906;2023-07-22T14:02:29;25.60;54.00
18717;DHT22;9487;50.892;6.906;2023-07-22T14:04:56;25.60;53.10
18717;DHT22;9487;50.892;6.906;2023-07-22T14:07:24;25.70;64.50
18717;DHT22;9487;50.892;6.906;2023-07-22T14:09:51;25.70;57.50
18717;DHT22;9487;50.892;6.906;2023-07-22T14:12:19;25.50;62.80
18717;DHT22;9487;50.892;6.906;2023-07-22T14:14:46;25.50;62.50
18717;DHT22;9487;50.892;6.906;2023-07-22T14:17:13;25.40;50.80
18717;DHT22;9487;50.892;6.906;2023-07-22T14:19:40;25.50;66.70
18717;DHT22;9487;50.892;6.906;2023-07-22T14:22:07;25.40;54.40
18717;DHT22;9487;50.892;6.906;2023-07-22T14:24:35;25.50;61.80
18717;DHT22;9487;50.892;6.906;2023-07-22T14:27:02;25.80;47.40
18717;DHT22;9487;50.892;6.906;2023-07-22T14:29:29;26.00;57.20
18717;DHT22;9487;50.892;6.906;2023-07-22T14:31:56;26.20;56.90
18717;DHT22;9487;50.892;6.906;2023-07-22T14:34:23;25.70;51.60
18717;DHT22;9487;50.892;6.906;2023-07-22T14:36:51;26.00;50.70
18717;DHT22;9487;50.892;6.906;2023-07-22T14:39:17;25.80;46.10
18717;DHT22;9487;50.892;6.906;2023-07-22T14:41:46;25.70;42.40
18717;DHT22;9487;50.892;6.906;2023-07-22T14:44:12;25.60;50.80
18717;DHT22;9487;50.892;6.906;2023-07-22T14:46:40;25.80;36.20
18717;DHT22;9487;50.892;6.906;2023-07-22T14:49:07;25.90;33.80
18717;DHT22;9487;50.892;6.906;2023-07-22T14:51:35;26.00;47.20
18717;DHT22;9487;50.892;6.906;2023-07-22T14:54:03;26.10;48.30
18717;DHT22;9487;50.892;6.906;2023-07-22T14:56:30;26.00;48.60
18717;DHT22;9487;50.892;6.906;2023-07-22T14:58:58;25.80;48.10
18717;DHT22;9487;50.892;6.906;2023-07-22T15:01:25;26.00;56.90
18717;DHT22;9487;50.892;6.906;2023-07-22T15:03:52;26.20;50.00
18717;DHT22;9487;50.892;6.906;2023-07-22T15:06:21;26.30;53.60
18717;DHT22;9487;50.892;6.906;2023-07-22T15:08:48;26.20;50.80
18717;DHT22;9487;50.892;6.906;2023-07-22T15:11:14;26.00;35.90
18717;DHT22;9487;50.892;6.906;2023-07-22T15:13:41;25.80;43.40
18717;DHT22;9487;50.892;6.906;2023-07-22T15:16:09;25.90;52.70
18717;DHT22;9487;50.892;6.906;2023-07-22T15:18:36;26.10;54.90
18717;DHT22;9487;50.892;6.906;2023-07-22T15:21:03;26.20;59.80
18717;DHT22;9487;50.892;6.906;2023-07-22T15:23:30;26.30;56.40
18717;DHT22;9487;50.892;6.906;2023-07-22T15:25:57;26.30;60.20
18717;DHT22;9487;50.892;6.906;2023-07-22T15:28:25;26.30;67.90
18717;DHT22;9487;50.892;6.906;2023-07-22T15:30:53;26.20;63.20
18717;DHT22;9487;50.892;6.906;2023-07-22T15:33:22;25.90;62.00
18717;DHT22;9487;50.892;6.906;2023-07-22T15:35:48;25.80;56.80
18717;DHT22;9487;50.892;6.906;2023-07-22T15:38:16;25.70;52.60
18717;DHT22;9487;50.892;6.906;2023-07-22T15:40:44;25.60;41.00
18717;DHT22;9487;50.892;6.906;2023-07-22T15:43:11;25.50;51.20
18717;DHT22;9487;50.892;6.906;2023-07-22T15:45:38;25.60;59.60
18717;DHT22;9487;50.892;6.906;2023-07-22T15:48:08;25.60;63.20
18717;DHT22;9487;50.892;6.906;2023-07-22T15:50:36;25.60;68.60
18717;DHT22;9487;50.892;6.906;2023-07-22T15:53:03;25.60;70.30
18717;DHT22;9487;50.892;6.906;2023-07-22T15:55:31;25.70;85.00
18717;DHT22;9487;50.892;6.906;2023-07-22T15:58:02;25.50;80.60
18717;DHT22;9487;50.892;6.906;2023-07-22T16:00:29;25.00;82.30
18717;DHT22;9487;50.892;6.906;2023-07-22T16:02:59;25.00;85.00